KCLW/CLW METAR and TAF weather

Enter ICAO airport designator
Station Type Date Time Source
KCLW METAR 2019/06/24 23:35 UTC NOAA

KCLW 242335Z AUTO 29005KT 10SM CLR 28/22 A3002 RMK AO2


Station Type Date Time Source
KCLW Decoded METAR 2019/06/24 23:35 UTC NOAA

Station name not available
Jun 24, 2019 - 07:35 PM EDT / 2019.06.24 2335 UTC
Wind: from the WNW (290 degrees) at 6 MPH (5 KT):0
Visibility: 10 mile(s):0
Sky conditions: clear
Temperature: 82 F (28 C)
Dew Point: 71 F (22 C)
Relative Humidity: 69%
Pressure (altimeter): 30.02 in. Hg (1016 hPa)
ob: KCLW 242335Z AUTO 29005KT 10SM CLR 28/22 A3002 RMK AO2
cycle: 23

Station Type Date Time Source
KCLW TAF UTC NOAA

Error!

Example: see airport list